Time;durP1;ratioP1;P1;durP2;ratioP2;P2;SDS_P1;SDS_P2;PMS_P1;PMS_P2;Temp;Humidity;BMP_temperature;BMP_pressure;BME280_temperature;BME280_humidity;BME280_pressure;Samples;Min_cycle;Max_cycle;Signal;HPM_P1;HPM_P2
2023/02/06 00:01:19;;;;;;;0.98;0.88;;;;;;;;;;5124789;27;20236;-68
2023/02/06 00:03:46;;;;;;;2.67;2.50;;;2.20;99.90;;;;;;5109817;27;20197;-68
2023/02/06 00:06:13;;;;;;;2.83;2.45;;;2.00;99.90;;;;;;5119559;27;20227;-67
2023/02/06 00:08:41;;;;;;;3.78;3.40;;;2.00;99.90;;;;;;5129580;27;20205;-68
2023/02/06 00:11:11;;;;;;;2.70;1.30;;;1.90;99.90;;;;;;5129437;27;20311;-67
2023/02/06 00:13:38;;;;;;;2.75;1.58;;;;;;;;;;5129069;27;20202;-67
2023/02/06 00:16:08;;;;;;;3.92;2.05;;;2.00;99.90;;;;;;5116777;27;20627;-68
2023/02/06 00:18:35;;;;;;;1.17;1.15;;;1.90;99.90;;;;;;5111915;27;20672;-68
2023/02/06 00:21:02;;;;;;;1.50;1.40;;;;;;;;;;5108906;27;20872;-68
2023/02/06 00:23:29;;;;;;;4.05;2.20;;;2.00;99.90;;;;;;5109541;27;20382;-68
2023/02/06 00:25:57;;;;;;;8.85;2.13;;;2.20;99.90;;;;;;5108638;27;20210;-67
2023/02/06 00:28:23;;;;;;;4.13;2.53;;;2.20;99.90;;;;;;5108545;28;20202;-67
2023/02/06 00:30:51;;;;;;;5.28;3.33;;;;;;;;;;5113508;27;20219;-68
2023/02/06 00:33:18;;;;;;;1.92;1.83;;;;;;;;;;5117156;27;20232;-67
2023/02/06 00:35:44;;;;;;;1.63;1.45;;;2.20;99.90;;;;;;5128660;27;20217;-68
2023/02/06 00:38:11;;;;;;;5.80;2.97;;;2.50;99.90;;;;;;5125474;27;20193;-67
2023/02/06 00:40:38;;;;;;;2.78;1.83;;;;;;;;;;5124475;27;20210;-67
2023/02/06 00:43:07;;;;;;;2.20;2.10;;;2.00;99.90;;;;;;5129459;27;20208;-68
2023/02/06 00:45:34;;;;;;;2.38;2.28;;;2.70;99.90;;;;;;5123899;27;20213;-68
2023/02/06 00:48:01;;;;;;;10.95;4.43;;;;;;;;;;5117449;27;20205;-68
2023/02/06 00:50:28;;;;;;;5.13;2.90;;;;;;;;;;5115316;27;20312;-67
2023/02/06 00:52:55;;;;;;;2.88;2.58;;;;;;;;;;5113150;27;20229;-67
2023/02/06 00:55:22;;;;;;;3.97;2.20;;;;;;;;;;5128109;27;20212;-68
2023/02/06 00:57:49;;;;;;;5.68;1.92;;;;;;;;;;5128909;27;20204;-67
2023/02/06 01:00:17;;;;;;;1.48;1.48;;;2.60;99.90;;;;;;5127027;27;20197;-68
2023/02/06 01:02:44;;;;;;;3.20;2.90;;;2.60;99.90;;;;;;5128522;27;20215;-67
2023/02/06 01:05:11;;;;;;;4.30;2.42;;;2.20;99.90;;;;;;5127957;27;20198;-67
2023/02/06 01:07:39;;;;;;;3.00;2.28;;;2.40;99.90;;;;;;5127996;27;20678;-68
2023/02/06 01:10:08;;;;;;;3.33;3.03;;;2.50;99.90;;;;;;5128111;27;20193;-69
2023/02/06 01:12:35;;;;;;;1.98;1.77;;;2.40;99.90;;;;;;5127144;27;20213;-68
2023/02/06 01:15:02;;;;;;;3.08;2.90;;;2.40;99.90;;;;;;5127941;27;20189;-67
2023/02/06 01:17:32;;;;;;;1.75;1.50;;;2.30;99.90;;;;;;5127672;27;20321;-68
2023/02/06 01:19:59;;;;;;;3.83;3.50;;;2.20;99.90;;;;;;5127564;27;20194;-67
2023/02/06 01:22:26;;;;;;;1.60;1.50;;;;;;;;;;5127661;27;20233;-68
2023/02/06 01:24:53;;;;;;;7.47;4.07;;;2.40;99.90;;;;;;5127393;27;20199;-68
2023/02/06 01:27:20;;;;;;;4.40;2.40;;;;;;;;;;5127336;27;20736;-68
2023/02/06 01:29:47;;;;;;;3.13;2.08;;;;;;;;;;5126579;27;20197;-68
2023/02/06 01:32:14;;;;;;;3.15;2.95;;;;;;;;;;5127685;27;20229;-68
2023/02/06 01:34:42;;;;;;;3.88;3.22;;;2.40;99.90;;;;;;5128233;27;20209;-67
2023/02/06 01:37:09;;;;;;;3.55;3.15;;;;;;;;;;5127512;27;20224;-70
2023/02/06 01:39:36;;;;;;;2.33;1.98;;;2.10;99.90;;;;;;5117297;27;20823;-69
2023/02/06 01:42:04;;;;;;;4.22;2.50;;;2.50;99.90;;;;;;5127234;27;20218;-68
2023/02/06 01:44:32;;;;;;;2.25;1.45;;;2.20;99.90;;;;;;5127866;27;20208;-68
2023/02/06 01:47:00;;;;;;;2.22;1.60;;;2.30;99.90;;;;;;5126357;27;20396;-66
2023/02/06 01:49:30;;;;;;;2.30;2.10;;;2.30;99.90;;;;;;5127256;27;20201;-68
2023/02/06 01:52:02;;;;;;;6.63;1.65;;;2.20;99.90;;;;;;5111023;27;20217;-67
2023/02/06 01:54:29;;;;;;;3.08;2.70;;;;;;;;;;5126734;27;20213;-68
2023/02/06 01:57:00;;;;;;;4.38;3.83;;;2.00;99.90;;;;;;5119931;27;20206;-67
2023/02/06 01:59:27;;;;;;;2.53;1.42;;;2.20;99.90;;;;;;5107004;28;20589;-67
2023/02/06 02:01:54;;;;;;;5.25;2.40;;;;;;;;;;5106799;28;20724;-68
2023/02/06 02:04:23;;;;;;;4.90;3.53;;;2.30;99.90;;;;;;5106010;28;20205;-68
2023/02/06 02:07:00;;;;;;;3.50;2.10;;;2.10;99.90;;;;;;5121468;28;20223;-68
2023/02/06 02:09:29;;;;;;;12.90;5.22;;;2.30;99.90;;;;;;5127346;28;20210;-67
2023/02/06 02:11:56;;;;;;;3.70;2.05;;;2.10;99.90;;;;;;5126937;28;20243;-68
2023/02/06 02:14:24;;;;;;;1.23;1.23;;;2.30;99.90;;;;;;5127132;28;20272;-68
2023/02/06 02:17:06;;;;;;;2.53;2.30;;;2.20;99.90;;;;;;5111808;28;20825;-68
2023/02/06 02:20:14;;;;;;;3.50;3.05;;;2.30;99.90;;;;;;5126512;28;20598;-68
2023/02/06 02:23:04;;;;;;;8.48;2.72;;;1.90;99.90;;;;;;5080718;28;20266;-68
2023/02/06 02:26:14;;;;;;;4.03;2.22;;;2.20;99.90;;;;;;5125549;28;20233;-69
2023/02/06 02:29:33;;;;;;;2.58;1.23;;;2.00;99.90;;;;;;5107459;28;20235;-68
2023/02/06 02:32:20;;;;;;;1.95;1.75;;;2.10;99.90;;;;;;5106813;28;20304;-67
2023/02/06 02:35:04;;;;;;;2.80;2.58;;;2.20;99.90;;;;;;5106809;28;20285;-67
2023/02/06 02:37:44;;;;;;;3.13;1.92;;;1.10;99.90;;;;;;5112777;28;20208;-68
2023/02/06 02:40:22;;;;;;;2.58;2.42;;;2.30;99.90;;;;;;5116733;28;20200;-68
2023/02/06 02:43:01;;;;;;;6.22;3.05;;;2.00;99.90;;;;;;5124980;28;20560;-67
2023/02/06 02:45:40;;;;;;;5.75;3.53;;;2.10;99.90;;;;;;5126763;28;20250;-68
2023/02/06 02:48:12;;;;;;;0.93;0.90;;;2.70;99.90;;;;;;5126884;28;20204;-68
2023/02/06 02:50:42;;;;;;;2.45;2.25;;;2.20;99.90;;;;;;5126007;28;20245;-67
2023/02/06 02:53:11;;;;;;;5.22;1.58;;;2.40;99.90;;;;;;5126616;28;20217;-68
2023/02/06 02:55:39;;;;;;;5.45;3.80;;;2.20;99.90;;;;;;5108376;28;20221;-67
2023/02/06 02:58:10;;;;;;;5.07;3.15;;;2.10;99.90;;;;;;5120440;27;20236;-67
2023/02/06 03:00:42;;;;;;;4.53;3.60;;;1.90;99.90;;;;;;5130736;27;20213;-67
2023/02/06 03:03:13;;;;;;;3.15;2.58;;;2.10;99.90;;;;;;5127143;27;20230;-69
2023/02/06 03:05:49;;;;;;;2.80;2.55;;;2.10;99.90;;;;;;5116539;27;20217;-68
2023/02/06 03:08:25;;;;;;;1.55;1.45;;;2.10;99.90;;;;;;5130475;27;20390;-67
2023/02/06 03:11:08;;;;;;;11.43;3.30;;;1.90;99.90;;;;;;5130773;27;20596;-68
2023/02/06 03:13:39;;;;;;;4.03;3.60;;;1.90;99.90;;;;;;5129619;27;20220;-68
2023/02/06 03:16:12;;;;;;;2.13;1.83;;;2.00;99.90;;;;;;5130480;27;20225;-68
2023/02/06 03:18:46;;;;;;;4.35;4.07;;;1.70;99.90;;;;;;5123424;27;20247;-68
2023/02/06 03:21:18;;;;;;;2.55;2.45;;;2.00;99.90;;;;;;5130497;27;20789;-67
2023/02/06 03:23:49;;;;;;;5.35;4.90;;;1.80;99.90;;;;;;5130576;27;20212;-67
2023/02/06 03:26:20;;;;;;;9.25;2.25;;;1.80;99.90;;;;;;5129412;27;20223;-68
2023/02/06 03:28:52;;;;;;;5.05;2.45;;;1.90;99.90;;;;;;5130004;27;20194;-67
2023/02/06 03:31:24;;;;;;;3.78;2.30;;;2.00;99.90;;;;;;5123332;27;20999;-70
2023/02/06 03:33:58;;;;;;;4.78;1.30;;;2.00;99.90;;;;;;5109715;28;20578;-68
2023/02/06 03:36:27;;;;;;;5.00;3.08;;;1.90;99.90;;;;;;5108990;28;20222;-68
2023/02/06 03:38:56;;;;;;;1.05;1.05;;;;;;;;;;5127810;27;20288;-68
2023/02/06 03:41:32;;;;;;;3.13;2.80;;;2.20;99.90;;;;;;5129934;27;20301;-68
2023/02/06 03:44:03;;;;;;;3.13;2.35;;;2.20;99.90;;;;;;5115039;27;20206;-68
2023/02/06 03:46:34;;;;;;;4.07;3.78;;;2.20;99.90;;;;;;5124916;27;20228;-67
2023/02/06 03:49:06;;;;;;;4.32;1.98;;;3.20;99.90;;;;;;5129014;27;20246;-68
2023/02/06 03:51:40;;;;;;;4.95;4.47;;;2.80;99.90;;;;;;5129771;27;20228;-68
2023/02/06 03:54:09;;;;;;;1.67;1.25;;;2.30;99.90;;;;;;5129615;27;20220;-67
2023/02/06 03:56:43;;;;;;;5.38;2.92;;;2.30;99.90;;;;;;5112349;27;20300;-66
2023/02/06 03:59:11;;;;;;;8.85;5.80;;;2.30;99.90;;;;;;5125733;27;20196;-68
2023/02/06 04:01:41;;;;;;;8.57;2.78;;;2.40;99.90;;;;;;5128959;27;20311;-68
2023/02/06 04:04:09;;;;;;;3.20;1.65;;;2.20;99.90;;;;;;5129794;27;20205;-68
2023/02/06 04:06:37;;;;;;;2.60;1.75;;;2.40;99.90;;;;;;5129270;27;20244;-66
2023/02/06 04:09:05;;;;;;;2.55;2.47;;;;;;;;;;5128057;27;20197;-68
2023/02/06 04:11:32;;;;;;;3.03;2.83;;;;;;;;;;5129696;27;20735;-67
2023/02/06 04:13:59;;;;;;;3.80;2.25;;;2.50;99.90;;;;;;5126809;27;20214;-68
2023/02/06 04:16:26;;;;;;;2.03;1.92;;;2.20;99.90;;;;;;5129493;27;20228;-67
2023/02/06 04:18:53;;;;;;;3.17;1.98;;;;;;;;;;5126662;27;20217;-67
2023/02/06 04:21:20;;;;;;;2.00;1.90;;;2.60;99.90;;;;;;5129333;27;20228;-68
2023/02/06 04:23:48;;;;;;;7.18;3.35;;;2.20;99.90;;;;;;5119026;27;20945;-67
2023/02/06 04:26:15;;;;;;;1.70;1.60;;;2.20;99.90;;;;;;5116150;27;20737;-68
2023/02/06 04:28:42;;;;;;;1.73;1.63;;;2.30;99.90;;;;;;5117661;27;20319;-67
2023/02/06 04:31:09;;;;;;;1.85;1.75;;;;;;;;;;5121944;27;20220;-68
2023/02/06 04:33:36;;;;;;;5.82;2.50;;;;;;;;;;5129066;27;20578;-68
2023/02/06 04:36:03;;;;;;;4.63;2.97;;;2.30;99.90;;;;;;5128092;27;20225;-68
2023/02/06 04:38:30;;;;;;;3.95;3.63;;;2.40;99.90;;;;;;5122861;27;20232;-68
2023/02/06 04:41:03;;;;;;;11.45;5.28;;;2.30;99.90;;;;;;5109798;27;20218;-66
2023/02/06 04:43:30;;;;;;;5.82;2.25;;;2.40;99.90;;;;;;5119409;27;20587;-68
2023/02/06 04:45:57;;;;;;;4.13;2.83;;;;;;;;;;5120418;27;20240;-68
2023/02/06 04:48:24;;;;;;;4.70;2.38;;;;;;;;;;5117670;27;20197;-68
2023/02/06 04:50:51;;;;;;;3.53;3.28;;;2.20;99.90;;;;;;5128479;27;20232;-68
2023/02/06 04:53:19;;;;;;;8.13;2.72;;;2.30;99.90;;;;;;5127893;27;20650;-67
2023/02/06 04:55:45;;;;;;;3.50;2.92;;;2.00;99.90;;;;;;5127906;27;20348;-67
2023/02/06 04:58:14;;;;;;;3.53;2.55;;;2.10;99.90;;;;;;5127925;27;20201;-67
2023/02/06 05:00:41;;;;;;;5.45;3.63;;;;;;;;;;5128085;27;20330;-68
2023/02/06 05:03:07;;;;;;;2.75;2.53;;;2.90;99.90;;;;;;5128049;27;20199;-68
2023/02/06 05:05:34;;;;;;;2.83;2.70;;;;;;;;;;5127986;27;20235;-67
2023/02/06 05:08:02;;;;;;;3.33;1.80;;;;;;;;;;5127812;27;20229;-68
2023/02/06 05:10:28;;;;;;;2.55;2.42;;;2.10;99.90;;;;;;5128572;27;20225;-68
2023/02/06 05:12:55;;;;;;;2.92;2.58;;;2.20;99.90;;;;;;5127523;27;20193;-67
2023/02/06 05:15:23;;;;;;;4.90;2.58;;;2.20;99.90;;;;;;5128578;27;20209;-68
2023/02/06 05:17:50;;;;;;;2.83;2.20;;;2.40;99.90;;;;;;5122885;27;20197;-68
2023/02/06 05:20:17;;;;;;;3.47;2.25;;;;;;;;;;5106885;28;20208;-67
2023/02/06 05:22:45;;;;;;;2.28;2.17;;;;;;;;;;5107241;27;20190;-66
2023/02/06 05:25:12;;;;;;;2.55;2.20;;;;;;;;;;5107578;28;20198;-68
2023/02/06 05:27:38;;;;;;;4.13;3.35;;;2.20;99.90;;;;;;5113448;27;20571;-68
2023/02/06 05:30:06;;;;;;;6.05;3.08;;;2.10;99.90;;;;;;5127608;27;20954;-68
2023/02/06 05:32:34;;;;;;;4.80;2.92;;;1.90;99.90;;;;;;5117321;27;20268;-68
2023/02/06 05:35:01;;;;;;;7.18;2.63;;;2.10;99.90;;;;;;5107220;28;20225;-68
2023/02/06 05:37:27;;;;;;;2.08;1.98;;;2.20;99.90;;;;;;5112290;27;20297;-68
2023/02/06 05:39:55;;;;;;;4.22;2.80;;;;;;;;;;5120486;27;20701;-68
2023/02/06 05:42:21;;;;;;;4.25;1.85;;;1.20;99.90;;;;;;5127602;27;20217;-68
2023/02/06 05:44:48;;;;;;;1.98;1.77;;;;;;;;;;5127780;27;20212;-67
2023/02/06 05:47:15;;;;;;;3.92;1.98;;;1.90;99.90;;;;;;5126887;27;20221;-69
2023/02/06 05:49:43;;;;;;;4.13;2.45;;;2.00;99.90;;;;;;5126841;27;20357;-68
2023/02/06 05:52:10;;;;;;;3.08;1.98;;;;;;;;;;5126767;27;20213;-70
2023/02/06 05:54:37;;;;;;;3.58;2.17;;;2.10;99.90;;;;;;5127504;27;20225;-68
2023/02/06 05:57:04;;;;;;;1.85;1.75;;;1.80;99.90;;;;;;5118280;27;20205;-68
2023/02/06 05:59:31;;;;;;;4.50;3.38;;;1.80;99.90;;;;;;5118167;27;20194;-69
2023/02/06 06:01:58;;;;;;;6.88;4.05;;;2.00;99.90;;;;;;5115154;27;20214;-68
2023/02/06 06:04:24;;;;;;;6.07;3.53;;;1.80;99.90;;;;;;5110795;27;21222;-68
2023/02/06 06:06:53;;;;;;;3.33;2.65;;;2.20;99.90;;;;;;5107034;27;20222;-68
2023/02/06 06:09:20;;;;;;;2.65;2.45;;;;;;;;;;5126812;27;20201;-68
2023/02/06 06:11:47;;;;;;;2.65;1.63;;;1.30;99.90;;;;;;5107716;28;20367;-68
2023/02/06 06:14:14;;;;;;;3.38;2.85;;;1.90;99.90;;;;;;5112875;28;20245;-68
2023/02/06 06:16:41;;;;;;;5.57;3.13;;;1.80;99.90;;;;;;5107328;28;20855;-69
2023/02/06 06:19:08;;;;;;;1.33;1.23;;;;;;;;;;5120847;28;20276;-68
2023/02/06 06:21:35;;;;;;;6.75;3.05;;;1.80;99.90;;;;;;5128036;28;20224;-67
2023/02/06 06:24:04;;;;;;;1.95;1.45;;;1.80;99.90;;;;;;5127691;28;20198;-68
2023/02/06 06:26:31;;;;;;;2.88;1.98;;;1.70;99.90;;;;;;5127517;28;20225;-68
2023/02/06 06:28:58;;;;;;;5.45;3.00;;;1.90;99.90;;;;;;5114239;28;20201;-68
2023/02/06 06:31:24;;;;;;;1.73;1.55;;;1.40;99.90;;;;;;5123304;27;20221;-69
2023/02/06 06:33:51;;;;;;;1.40;1.30;;;2.00;99.90;;;;;;5121687;27;20935;-68
2023/02/06 06:36:20;;;;;;;4.85;3.55;;;1.70;99.90;;;;;;5119889;27;20282;-70
2023/02/06 06:38:47;;;;;;;3.58;3.28;;;1.80;99.90;;;;;;5125892;27;20197;-67
2023/02/06 06:41:15;;;;;;;8.50;4.03;;;1.70;99.90;;;;;;5119112;27;20219;-67
2023/02/06 06:43:42;;;;;;;4.22;2.60;;;;;;;;;;5117585;27;20186;-66
2023/02/06 06:46:09;;;;;;;1.00;1.00;;;1.50;99.90;;;;;;5129065;27;20955;-68
2023/02/06 06:48:37;;;;;;;4.07;3.53;;;1.50;99.90;;;;;;5127294;27;20204;-68
2023/02/06 06:51:04;;;;;;;3.97;3.67;;;1.60;99.90;;;;;;5130562;27;20298;-68
2023/02/06 06:53:31;;;;;;;5.75;3.35;;;;;;;;;;5129415;27;20196;-68
2023/02/06 06:56:03;;;;;;;5.45;3.13;;;1.50;99.90;;;;;;5130297;27;20235;-68
2023/02/06 06:58:31;;;;;;;2.67;2.47;;;1.60;99.90;;;;;;5127860;27;20254;-68
2023/02/06 07:00:58;;;;;;;2.00;1.88;;;;;;;;;;5130709;27;20316;-68
2023/02/06 07:03:25;;;;;;;3.50;3.30;;;1.60;99.90;;;;;;5114177;27;20190;-68
2023/02/06 07:05:52;;;;;;;2.58;1.92;;;1.60;99.90;;;;;;5117584;27;20795;-67
2023/02/06 07:08:22;;;;;;;2.08;1.63;;;;;;;;;;5129835;27;20285;-68
2023/02/06 07:10:49;;;;;;;1.60;1.40;;;1.50;99.90;;;;;;5130981;27;20219;-69
2023/02/06 07:13:16;;;;;;;2.85;2.42;;;2.50;99.90;;;;;;5122313;27;20232;-69
2023/02/06 07:15:44;;;;;;;10.68;4.80;;;1.70;99.90;;;;;;5129510;27;20235;-69
2023/02/06 07:18:11;;;;;;;2.40;2.30;;;;;;;;;;5130568;27;20197;-70
2023/02/06 07:20:38;;;;;;;7.63;4.15;;;1.70;99.90;;;;;;5125219;27;20222;-69
2023/02/06 07:23:04;;;;;;;2.28;1.90;;;1.70;99.90;;;;;;5127328;27;20576;-68
2023/02/06 07:25:31;;;;;;;3.55;3.20;;;1.80;99.90;;;;;;5130597;27;20225;-69
2023/02/06 07:27:58;;;;;;;6.72;3.38;;;1.70;99.90;;;;;;5117815;27;20193;-69
2023/02/06 07:30:25;;;;;;;4.03;2.33;;;1.70;99.90;;;;;;5130354;27;20228;-68
2023/02/06 07:32:53;;;;;;;4.57;4.35;;;1.70;99.90;;;;;;5129219;27;20211;-69
2023/02/06 07:35:20;;;;;;;2.83;1.38;;;1.70;99.90;;;;;;5130207;27;20221;-68
2023/02/06 07:37:47;;;;;;;2.45;1.75;;;1.90;99.90;;;;;;5121243;27;20355;-68
2023/02/06 07:40:14;;;;;;;2.67;2.47;;;1.70;99.90;;;;;;5115186;27;20197;-69
2023/02/06 07:42:40;;;;;;;2.25;1.42;;;1.90;99.90;;;;;;5112278;27;20196;-68
2023/02/06 07:45:08;;;;;;;5.70;2.90;;;1.70;99.90;;;;;;5130855;27;20209;-68
2023/02/06 07:47:35;;;;;;;2.78;2.15;;;;;;;;;;5130369;27;20199;-69
2023/02/06 07:50:04;;;;;;;6.43;2.40;;;1.90;99.90;;;;;;5130426;27;20201;-67
2023/02/06 07:52:30;;;;;;;1.67;1.55;;;1.50;99.90;;;;;;5129830;27;20216;-70
2023/02/06 07:54:57;;;;;;;3.45;1.67;;;1.90;99.90;;;;;;5130238;27;20349;-68
2023/02/06 07:57:24;;;;;;;2.05;1.95;;;;;;;;;;5129986;27;20311;-69
2023/02/06 07:59:51;;;;;;;1.35;1.30;;;1.30;99.90;;;;;;5130376;27;20201;-68
2023/02/06 08:02:18;;;;;;;1.70;1.60;;;;;;;;;;5120505;27;20315;-68
2023/02/06 08:04:48;;;;;;;2.45;2.28;;;1.80;99.90;;;;;;5129828;27;20215;-69
2023/02/06 08:07:18;;;;;;;1.90;1.80;;;1.70;99.90;;;;;;5129067;27;20794;-69
2023/02/06 08:09:45;;;;;;;3.38;3.15;;;1.80;99.90;;;;;;5129720;27;20181;-68
2023/02/06 08:12:11;;;;;;;4.35;1.58;;;1.80;99.90;;;;;;5129831;27;20228;-68
2023/02/06 08:14:38;;;;;;;11.13;4.03;;;;;;;;;;5129784;27;20225;-68
2023/02/06 08:17:06;;;;;;;2.92;2.83;;;1.90;99.90;;;;;;5125228;27;20218;-69
2023/02/06 08:19:33;;;;;;;1.20;1.10;;;2.30;99.90;;;;;;5109397;27;20326;-68
2023/02/06 08:22:00;;;;;;;2.17;2.05;;;1.90;99.90;;;;;;5108877;28;20226;-68
2023/02/06 08:24:28;;;;;;;1.40;1.30;;;1.90;99.90;;;;;;5110758;27;20194;-68
2023/02/06 08:26:55;;;;;;;2.20;1.17;;;1.90;99.90;;;;;;5119072;27;20223;-69
2023/02/06 08:29:23;;;;;;;2.70;2.58;;;1.90;99.90;;;;;;5122704;27;20208;-68
2023/02/06 08:31:50;;;;;;;2.75;2.03;;;1.60;99.90;;;;;;5116664;27;20255;-68
2023/02/06 08:34:17;;;;;;;2.10;1.25;;;;;;;;;;5108596;28;20218;-67
2023/02/06 08:36:44;;;;;;;2.10;2.00;;;1.80;99.90;;;;;;5112728;27;20221;-68
2023/02/06 08:39:13;;;;;;;1.83;1.73;;;1.80;99.90;;;;;;5121415;27;20273;-70
2023/02/06 08:41:43;;;;;;;2.33;2.15;;;1.90;99.90;;;;;;5109192;28;20226;-68
2023/02/06 08:44:13;;;;;;;3.80;3.42;;;1.80;99.90;;;;;;5123560;27;20287;-68
2023/02/06 08:46:40;;;;;;;1.17;1.10;;;1.80;99.90;;;;;;5129318;27;20218;-68
2023/02/06 08:49:13;;;;;;;1.45;1.40;;;1.90;99.90;;;;;;5126250;27;20202;-68
2023/02/06 08:51:40;;;;;;;2.25;1.83;;;;;;;;;;5129155;27;20225;-68
2023/02/06 08:54:10;;;;;;;1.60;1.48;;;2.00;99.90;;;;;;5123309;27;20213;-68
2023/02/06 08:56:38;;;;;;;2.03;1.92;;;2.50;99.90;;;;;;5117212;27;20229;-68
2023/02/06 08:59:09;;;;;;;3.88;3.55;;;2.10;99.90;;;;;;5129037;27;20288;-68
2023/02/06 09:01:37;;;;;;;1.52;1.42;;;2.10;99.90;;;;;;5128022;27;20388;-69
2023/02/06 09:04:06;;;;;;;1.35;1.17;;;2.30;99.90;;;;;;5111089;27;20672;-68
2023/02/06 09:06:35;;;;;;;4.82;1.08;;;2.00;99.90;;;;;;5122948;27;20225;-68
2023/02/06 09:09:04;;;;;;;1.48;1.40;;;3.10;99.90;;;;;;5118192;27;20204;-68
2023/02/06 09:11:31;;;;;;;5.38;3.03;;;2.80;99.90;;;;;;5114827;27;20224;-69
2023/02/06 09:13:59;;;;;;;0.85;0.85;;;2.30;99.90;;;;;;5107727;28;20200;-68
2023/02/06 09:16:29;;;;;;;1.48;1.15;;;2.30;99.90;;;;;;5113708;27;20243;-68
2023/02/06 09:19:00;;;;;;;0.95;0.95;;;2.30;99.90;;;;;;5126561;27;20697;-68
2023/02/06 09:21:28;;;;;;;3.45;2.50;;;2.30;99.90;;;;;;5109296;27;20226;-69
2023/02/06 09:23:58;;;;;;;3.10;2.33;;;2.50;99.90;;;;;;5128655;27;20189;-68
2023/02/06 09:26:27;;;;;;;2.25;2.15;;;2.20;99.90;;;;;;5127433;27;20220;-70
2023/02/06 09:28:56;;;;;;;6.13;3.97;;;2.10;99.90;;;;;;5119761;27;20247;-69
2023/02/06 09:31:23;;;;;;;2.28;2.17;;;;;;;;;;5127754;27;20231;-68
2023/02/06 09:33:51;;;;;;;0.47;0.47;;;2.20;99.90;;;;;;5108605;28;20289;-68
2023/02/06 09:36:21;;;;;;;5.55;1.33;;;2.10;99.90;;;;;;5110587;27;20738;-69
2023/02/06 09:38:49;;;;;;;1.50;1.23;;;2.10;99.90;;;;;;5118274;27;20281;-69
2023/02/06 09:41:19;;;;;;;1.73;1.15;;;2.10;99.90;;;;;;5127111;27;20301;-69
2023/02/06 09:43:51;;;;;;;2.40;1.15;;;2.10;99.90;;;;;;5128300;27;20199;-68
2023/02/06 09:46:22;;;;;;;0.93;0.80;;;2.00;99.90;;;;;;5128107;27;20225;-68
2023/02/06 09:48:50;;;;;;;4.15;3.95;;;2.10;99.90;;;;;;5127273;27;20201;-68
2023/02/06 09:51:24;;;;;;;1.73;1.63;;;2.10;99.90;;;;;;5120221;27;20314;-69
2023/02/06 09:54:06;;;;;;;1.77;1.67;;;2.10;99.90;;;;;;5121004;27;20566;-68
2023/02/06 09:56:39;;;;;;;4.82;2.00;;;2.90;99.90;;;;;;5107345;28;20814;-69
2023/02/06 09:59:13;;;;;;;5.55;1.52;;;2.60;99.90;;;;;;5123808;27;20553;-68
2023/02/06 10:01:45;;;;;;;2.10;1.08;;;2.30;99.90;;;;;;5128105;27;20221;-67
2023/02/06 10:04:39;;;;;;;2.53;1.50;;;2.80;99.90;;;;;;5127846;27;20639;-69
2023/02/06 10:07:19;;;;;;;3.42;2.25;;;2.50;99.90;;;;;;5119568;27;20222;-68
2023/02/06 10:09:50;;;;;;;1.75;1.02;;;2.30;99.90;;;;;;5118111;27;20200;-67
2023/02/06 10:12:22;;;;;;;1.35;1.35;;;2.40;99.90;;;;;;5120850;28;20213;-67
2023/02/06 10:14:51;;;;;;;1.08;1.00;;;2.40;99.90;;;;;;5107584;28;20272;-69
2023/02/06 10:17:21;;;;;;;1.25;1.25;;;2.30;99.90;;;;;;5112619;28;20303;-69
2023/02/06 10:19:56;;;;;;;1.40;1.30;;;2.20;99.90;;;;;;5127836;28;20705;-69
2023/02/06 10:22:27;;;;;;;1.45;1.35;;;2.40;99.90;;;;;;5127396;28;20220;-68
2023/02/06 10:25:13;;;;;;;1.45;1.45;;;2.40;99.90;;;;;;5120180;28;20207;-69
2023/02/06 10:27:43;;;;;;;2.70;1.58;;;2.40;99.90;;;;;;5125113;28;20207;-68
2023/02/06 10:30:16;;;;;;;0.40;0.35;;;2.80;99.90;;;;;;5127495;28;20197;-67
2023/02/06 10:32:51;;;;;;;1.80;1.70;;;2.50;99.90;;;;;;5127730;28;20197;-69
2023/02/06 10:35:34;;;;;;;6.88;2.50;;;2.50;99.90;;;;;;5119260;28;20219;-68
2023/02/06 10:38:26;;;;;;;0.70;0.55;;;2.30;99.90;;;;;;5116278;28;20200;-68
2023/02/06 10:40:58;;;;;;;0.40;0.40;;;2.70;99.90;;;;;;5125565;28;20224;-68
2023/02/06 10:43:39;;;;;;;0.50;0.50;;;2.50;99.90;;;;;;5126284;28;20199;-69
2023/02/06 10:46:21;;;;;;;1.70;0.80;;;2.20;99.90;;;;;;5118842;28;20322;-69
2023/02/06 10:48:57;;;;;;;4.05;1.42;;;2.40;99.90;;;;;;5123361;28;20630;-69
2023/02/06 10:51:31;;;;;;;2.47;0.88;;;2.30;99.90;;;;;;5127894;28;20228;-68
2023/02/06 10:54:00;;;;;;;1.33;1.33;;;2.40;99.90;;;;;;5126505;28;20204;-69
2023/02/06 10:56:30;;;;;;;0.70;0.70;;;2.40;99.90;;;;;;5127717;28;20337;-68
2023/02/06 10:59:01;;;;;;;2.70;1.02;;;2.40;99.50;;;;;;5113584;28;20190;-69
2023/02/06 11:01:34;;;;;;;1.35;1.25;;;2.40;99.90;;;;;;5117231;28;20221;-68
2023/02/06 11:04:06;;;;;;;0.73;0.73;;;2.50;99.90;;;;;;5108195;28;20202;-69
2023/02/06 11:06:34;;;;;;;0.68;0.68;;;2.40;99.70;;;;;;5120259;28;20217;-69
2023/02/06 11:09:01;;;;;;;2.53;2.15;;;2.40;99.90;;;;;;5125014;28;20735;-69
2023/02/06 11:11:30;;;;;;;0.70;0.70;;;2.50;99.20;;;;;;5126086;28;20225;-69
2023/02/06 11:14:01;;;;;;;3.35;3.15;;;2.50;99.90;;;;;;5107037;28;20201;-68
2023/02/06 11:16:29;;;;;;;1.85;0.95;;;2.50;99.90;;;;;;5106889;28;20380;-68
2023/02/06 11:19:00;;;;;;;1.52;1.20;;;2.60;99.90;;;;;;5127355;27;20193;-69
2023/02/06 11:21:50;;;;;;;1.45;1.42;;;2.50;98.70;;;;;;5131120;27;20221;-68
2023/02/06 11:24:19;;;;;;;0.30;0.30;;;2.60;98.50;;;;;;5128684;27;20704;-66
2023/02/06 11:26:50;;;;;;;2.22;2.05;;;2.60;99.90;;;;;;5110535;28;20228;-66
2023/02/06 11:29:18;;;;;;;0.65;0.65;;;2.50;97.50;;;;;;5126462;27;20205;-66
2023/02/06 11:31:49;;;;;;;0.30;0.30;;;2.60;97.70;;;;;;5114045;27;20232;-66
2023/02/06 11:34:24;;;;;;;1.10;1.10;;;2.80;99.90;;;;;;5109638;28;20229;-67
2023/02/06 11:36:54;;;;;;;0.60;0.50;;;2.50;99.90;;;;;;5110064;27;20241;-66
2023/02/06 11:39:24;;;;;;;0.50;0.50;;;2.60;98.10;;;;;;5121174;27;20206;-69
2023/02/06 11:42:00;;;;;;;0.45;0.45;;;2.50;98.30;;;;;;5109734;28;20726;-69
2023/02/06 11:44:28;;;;;;;1.25;0.65;;;2.80;99.90;;;;;;5110445;28;20206;-68
2023/02/06 11:46:55;;;;;;;0.40;0.40;;;3.00;99.90;;;;;;5129519;27;20596;-68
2023/02/06 11:49:28;;;;;;;1.15;1.13;;;2.70;97.90;;;;;;5127694;27;20205;-68
2023/02/06 11:51:59;;;;;;;0.85;0.85;;;2.80;98.50;;;;;;5127883;27;20217;-68
2023/02/06 11:54:27;;;;;;;0.82;0.82;;;2.60;99.90;;;;;;5126389;27;20199;-69
2023/02/06 11:57:02;;;;;;;0.55;0.40;;;2.40;96.20;;;;;;5126419;27;20229;-68
2023/02/06 11:59:29;;;;;;;0.75;0.73;;;2.90;99.70;;;;;;5129679;27;20197;-68
2023/02/06 12:02:00;;;;;;;0.40;0.30;;;2.80;96.00;;;;;;5127071;27;20229;-68
2023/02/06 12:04:33;;;;;;;0.63;0.63;;;2.40;96.40;;;;;;5130034;27;20197;-68
2023/02/06 12:07:10;;;;;;;1.00;0.90;;;2.80;96.30;;;;;;5129379;27;20955;-68
2023/02/06 12:09:37;;;;;;;0.50;0.40;;;;;;;;;;5130429;27;20203;-68
2023/02/06 12:12:12;;;;;;;0.95;0.95;;;2.80;96.00;;;;;;5128848;27;20225;-69
2023/02/06 12:14:43;;;;;;;3.42;1.70;;;2.50;96.60;;;;;;5115319;27;20211;-69
2023/02/06 12:17:22;;;;;;;0.50;0.50;;;2.40;97.70;;;;;;5129581;27;20236;-68
2023/02/06 12:19:52;;;;;;;0.60;0.60;;;2.50;97.60;;;;;;5118997;27;20196;-68
2023/02/06 12:22:23;;;;;;;0.85;0.70;;;2.60;97.80;;;;;;5129634;27;20259;-68
2023/02/06 12:24:53;;;;;;;1.08;0.75;;;2.50;97.80;;;;;;5130306;27;20193;-68
2023/02/06 12:27:26;;;;;;;0.90;0.70;;;2.50;99.90;;;;;;5124752;27;20230;-68
2023/02/06 12:30:00;;;;;;;7.25;1.42;;;3.00;99.90;;;;;;5107604;27;20200;-68
2023/02/06 12:32:31;;;;;;;1.95;1.85;;;2.60;96.80;;;;;;5109951;27;20225;-68
2023/02/06 12:35:01;;;;;;;3.92;2.53;;;3.00;99.90;;;;;;5129642;27;20386;-68
2023/02/06 12:37:38;;;;;;;3.97;2.45;;;2.80;96.60;;;;;;5116356;27;20267;-69
2023/02/06 12:40:16;;;;;;;0.70;0.70;;;2.50;97.10;;;;;;5127322;27;20283;-69
2023/02/06 12:42:47;;;;;;;0.90;0.90;;;2.40;99.90;;;;;;5130028;27;20192;-68
2023/02/06 12:45:30;;;;;;;0.45;0.45;;;2.70;97.40;;;;;;5128908;27;20198;-69
2023/02/06 12:48:03;;;;;;;1.27;0.55;;;2.60;97.60;;;;;;5114422;27;20197;-68
2023/02/06 12:50:34;;;;;;;1.30;1.20;;;2.50;99.90;;;;;;5128863;27;20213;-69
2023/02/06 12:53:07;;;;;;;0.40;0.40;;;2.30;99.90;;;;;;5121472;27;20186;-68
2023/02/06 12:55:38;;;;;;;0.40;0.40;;;2.30;98.40;;;;;;5129061;27;20351;-68
2023/02/06 12:58:20;;;;;;;2.70;1.30;;;2.40;99.90;;;;;;5128704;27;20199;-68
2023/02/06 13:01:06;;;;;;;1.08;0.98;;;1.70;99.90;;;;;;5126438;27;20222;-68
2023/02/06 13:03:40;;;;;;;1.45;1.35;;;2.40;99.90;;;;;;5117213;27;20185;-68
2023/02/06 13:06:17;;;;;;;1.40;1.17;;;2.70;99.90;;;;;;5129227;27;20233;-68
2023/02/06 13:08:50;;;;;;;1.95;1.15;;;2.70;99.50;;;;;;5127897;27;20667;-69
2023/02/06 13:11:27;;;;;;;1.38;1.27;;;2.60;99.90;;;;;;5122179;27;20304;-69
2023/02/06 13:14:08;;;;;;;1.10;1.00;;;2.50;97.60;;;;;;5128930;27;20212;-68
2023/02/06 13:16:48;;;;;;;0.65;0.65;;;2.40;99.90;;;;;;5115489;27;20233;-68
2023/02/06 13:19:31;;;;;;;1.95;1.85;;;2.20;99.90;;;;;;5109151;27;20202;-68
2023/02/06 13:22:44;;;;;;;1.50;1.40;;;2.50;98.10;;;;;;5118865;27;20218;-66
2023/02/06 13:25:50;;;;;;;1.48;1.15;;;2.30;98.00;;;;;;5127580;27;20197;-69
2023/02/06 13:28:59;;;;;;;1.10;1.10;;;2.50;97.60;;;;;;5116585;27;20204;-67
2023/02/06 13:31:28;;;;;;;1.83;1.67;;;2.40;99.90;;;;;;5128178;27;20221;-66